createdAt,value
2022-11-23T00:01:36.162Z,74.50
2022-11-23T00:04:10.504Z,72.70
2022-11-23T00:06:38.653Z,75.20
2022-11-23T00:09:07.443Z,67.70
2022-11-23T00:11:36.436Z,67.90
2022-11-23T00:14:04.920Z,70.90
2022-11-23T00:16:32.885Z,66.70
2022-11-23T00:19:01.800Z,68.40
2022-11-23T00:21:31.595Z,68.10
2022-11-23T00:23:59.797Z,71.90
2022-11-23T00:26:28.242Z,69.80
2022-11-23T00:28:56.116Z,71.00
2022-11-23T00:31:28.197Z,66.80
2022-11-23T00:33:58.091Z,68.80
2022-11-23T00:36:27.604Z,69.80
2022-11-23T00:38:55.783Z,63.90
2022-11-23T00:41:26.732Z,65.90
2022-11-23T00:43:54.999Z,68.10
2022-11-23T00:46:27.704Z,69.10
2022-11-23T00:48:57.897Z,72.40
2022-11-23T00:51:30.236Z,69.90
2022-11-23T00:53:59.927Z,67.40
2022-11-23T00:56:29.660Z,68.90
2022-11-23T00:58:59.300Z,67.00
2022-11-23T01:01:31.204Z,68.20
2022-11-23T01:04:01.290Z,71.10
2022-11-23T01:06:35.563Z,69.80
2022-11-23T01:09:12.188Z,71.20
2022-11-23T01:11:40.555Z,69.40
2022-11-23T01:14:08.727Z,67.00
2022-11-23T01:16:39.269Z,71.80
2022-11-23T01:19:10.954Z,69.90
2022-11-23T01:21:40.109Z,75.20
2022-11-23T01:24:12.500Z,69.40
2022-11-23T01:26:41.376Z,72.90
2022-11-23T01:29:09.242Z,71.00
2022-11-23T01:31:46.181Z,70.20
2022-11-23T01:34:16.245Z,70.50
2022-11-23T01:36:44.928Z,68.90
2022-11-23T01:39:13.822Z,72.50
2022-11-23T01:41:45.425Z,70.40
2022-11-23T01:44:34.677Z,75.00
2022-11-23T01:47:07.875Z,77.30
2022-11-23T01:49:43.502Z,81.40
2022-11-23T01:52:24.027Z,82.00
2022-11-23T01:54:59.185Z,78.60
2022-11-23T01:57:33.120Z,83.30
2022-11-23T02:00:02.333Z,77.70
2022-11-23T02:02:53.957Z,77.90
2022-11-23T02:05:27.844Z,76.20
2022-11-23T02:07:55.832Z,79.00
2022-11-23T02:10:24.181Z,77.70
2022-11-23T02:12:53.583Z,76.10
2022-11-23T02:15:21.605Z,77.40
2022-11-23T02:17:51.580Z,76.00
2022-11-23T02:20:19.928Z,82.00
2022-11-23T02:23:02.597Z,82.80
2022-11-23T02:25:45.703Z,82.30
2022-11-23T02:28:22.569Z,80.90
2022-11-23T02:30:53.326Z,88.20
2022-11-23T02:33:25.609Z,74.60
2022-11-23T02:35:57.059Z,80.00
2022-11-23T02:38:28.600Z,76.10
2022-11-23T02:40:58.334Z,74.90
2022-11-23T02:43:26.588Z,73.10
2022-11-23T02:46:01.926Z,79.50
2022-11-23T02:48:29.777Z,88.20
2022-11-23T02:50:57.589Z,88.40
2022-11-23T02:53:25.420Z,96.90
2022-11-23T02:55:54.609Z,92.80
2022-11-23T02:58:22.453Z,86.10
2022-11-23T03:00:50.573Z,86.10
2022-11-23T03:03:21.079Z,87.20
2022-11-23T03:05:48.943Z,74.80
2022-11-23T03:08:16.797Z,78.00
2022-11-23T03:10:44.782Z,91.70
2022-11-23T03:13:13.059Z,91.30
2022-11-23T03:15:41.747Z,84.90
2022-11-23T03:18:11.361Z,74.90
2022-11-23T03:20:40.042Z,79.40
2022-11-23T03:23:08.021Z,84.10
2022-11-23T03:25:35.862Z,88.80
2022-11-23T03:28:05.302Z,99.00
2022-11-23T03:30:34.563Z,102.60
2022-11-23T03:33:04.192Z,84.90
2022-11-23T03:35:32.160Z,88.10
2022-11-23T03:38:15.083Z,93.20
2022-11-23T03:40:46.481Z,89.00
2022-11-23T03:43:23.259Z,80.50
2022-11-23T03:45:51.204Z,87.10
2022-11-23T03:48:19.684Z,90.20
2022-11-23T03:50:47.730Z,84.00
2022-11-23T03:53:16.837Z,88.50
2022-11-23T03:55:47.009Z,86.60
2022-11-23T03:58:15.743Z,95.90
2022-11-23T04:00:44.054Z,86.50
2022-11-23T04:03:14.307Z,85.10
2022-11-23T04:06:09.341Z,90.90
2022-11-23T04:09:02.111Z,82.80
2022-11-23T04:11:59.753Z,76.80
2022-11-23T04:14:27.729Z,80.40
2022-11-23T04:16:55.784Z,79.30
2022-11-23T04:19:23.669Z,72.60
2022-11-23T04:21:51.740Z,68.60
2022-11-23T04:24:20.426Z,73.30
2022-11-23T04:26:48.440Z,70.90
2022-11-23T04:29:16.367Z,69.50
2022-11-23T04:31:47.414Z,73.70
2022-11-23T04:34:18.315Z,69.80
2022-11-23T04:36:46.829Z,72.00
2022-11-23T04:39:15.005Z,69.20
2022-11-23T04:42:01.899Z,81.40
2022-11-23T04:44:31.645Z,79.50
2022-11-23T04:47:02.861Z,79.30
2022-11-23T04:49:32.188Z,79.50
2022-11-23T04:52:00.459Z,77.60
2022-11-23T04:54:32.929Z,73.60
2022-11-23T04:57:02.469Z,76.80
2022-11-23T04:59:30.683Z,80.60
2022-11-23T05:02:00.321Z,83.00
2022-11-23T05:04:48.516Z,78.10
2022-11-23T05:07:17.946Z,81.20
2022-11-23T05:09:50.579Z,84.20
2022-11-23T05:12:20.296Z,82.60
2022-11-23T05:14:48.228Z,84.30
2022-11-23T05:17:20.860Z,94.10
2022-11-23T05:19:50.106Z,88.50
2022-11-23T05:22:18.615Z,91.60
2022-11-23T05:24:46.765Z,87.20
2022-11-23T05:27:17.908Z,91.80
2022-11-23T05:29:47.003Z,89.40
2022-11-23T05:32:15.359Z,83.70
2022-11-23T05:34:43.967Z,87.70
2022-11-23T05:37:13.092Z,86.70
2022-11-23T05:39:49.636Z,84.50
2022-11-23T05:42:18.670Z,84.70
2022-11-23T05:44:48.852Z,83.90
2022-11-23T05:47:21.839Z,85.70
2022-11-23T05:49:50.729Z,89.10
2022-11-23T05:52:20.287Z,78.60
2022-11-23T05:54:49.575Z,84.80
2022-11-23T05:57:18.020Z,77.80
2022-11-23T05:59:46.713Z,82.90
2022-11-23T06:02:28.707Z,78.60
2022-11-23T06:05:01.182Z,81.00
2022-11-23T06:07:38.028Z,78.90
2022-11-23T06:10:10.022Z,78.80
2022-11-23T06:12:40.757Z,81.70
2022-11-23T06:15:12.721Z,80.80
2022-11-23T06:17:40.895Z,79.90
2022-11-23T06:20:12.759Z,81.80
2022-11-23T06:22:44.412Z,76.50
2022-11-23T06:25:12.481Z,77.80
2022-11-23T06:27:42.809Z,82.20
2022-11-23T06:30:24.585Z,84.40
2022-11-23T06:32:53.193Z,82.50
2022-11-23T06:35:23.891Z,81.30
2022-11-23T06:37:53.838Z,80.70
2022-11-23T06:40:21.911Z,78.10
2022-11-23T06:42:51.136Z,78.90
2022-11-23T06:45:28.092Z,76.50
2022-11-23T06:47:57.394Z,76.20
2022-11-23T06:50:25.488Z,72.60
2022-11-23T06:52:58.030Z,79.60
2022-11-23T06:55:36.457Z,73.40
2022-11-23T06:58:06.371Z,73.30
2022-11-23T07:00:34.649Z,72.00
2022-11-23T07:03:03.131Z,75.70
2022-11-23T07:05:33.968Z,76.60
2022-11-23T07:08:02.108Z,75.90
2022-11-23T07:10:31.488Z,76.50
2022-11-23T07:13:09.835Z,76.50
2022-11-23T07:15:38.710Z,68.10
2022-11-23T07:18:07.954Z,77.60
2022-11-23T07:20:36.707Z,79.40
2022-11-23T07:23:08.035Z,75.60
2022-11-23T07:25:37.927Z,82.10
2022-11-23T07:28:07.580Z,78.00
2022-11-23T07:30:36.346Z,79.20
2022-11-23T07:33:08.517Z,78.40
2022-11-23T07:35:38.304Z,85.50
2022-11-23T07:38:08.145Z,81.40
2022-11-23T07:40:37.784Z,79.20
2022-11-23T07:43:07.236Z,86.80
2022-11-23T07:45:36.844Z,83.80
2022-11-23T07:48:09.359Z,83.50
2022-11-23T07:50:39.004Z,86.60
2022-11-23T07:53:07.688Z,84.90
2022-11-23T07:55:35.557Z,88.30
2022-11-23T07:58:03.626Z,89.10
2022-11-23T08:00:31.727Z,90.90
2022-11-23T08:05:48.529Z,95.70
2022-11-23T08:08:16.706Z,96.50
2022-11-23T08:10:48.533Z,90.60
2022-11-23T08:13:21.147Z,79.00
2022-11-23T08:15:55.743Z,86.50
2022-11-23T08:18:24.615Z,92.20
2022-11-23T08:20:53.490Z,89.80
2022-11-23T08:23:21.958Z,82.60
2022-11-23T08:25:50.322Z,87.60
2022-11-23T08:28:18.899Z,83.30
2022-11-23T08:30:47.696Z,84.50
2022-11-23T08:33:16.172Z,85.10
2022-11-23T08:35:44.854Z,84.20
2022-11-23T08:38:13.234Z,86.10
2022-11-23T08:40:41.305Z,78.60
2022-11-23T08:43:09.684Z,79.00
2022-11-23T08:45:37.756Z,84.90
2022-11-23T08:48:06.545Z,88.10
2022-11-23T08:50:35.599Z,90.10
2022-11-23T08:53:03.712Z,84.00
2022-11-23T08:55:31.890Z,87.30
2022-11-23T08:58:00.166Z,87.30
2022-11-23T09:00:28.953Z,88.30
2022-11-23T09:02:59.182Z,91.70
2022-11-23T09:05:29.616Z,85.60
2022-11-23T09:08:01.468Z,84.00
2022-11-23T09:10:29.742Z,84.80
2022-11-23T09:12:59.494Z,85.70
2022-11-23T09:15:27.730Z,83.60
2022-11-23T09:17:57.139Z,78.70
2022-11-23T09:20:25.651Z,78.70
2022-11-23T09:22:55.475Z,87.40
2022-11-23T09:25:24.627Z,86.70
2022-11-23T09:27:59.999Z,85.10
2022-11-23T09:30:28.137Z,88.40
2022-11-23T09:32:58.146Z,87.10
2022-11-23T09:35:26.283Z,85.90
2022-11-23T09:37:58.511Z,85.90
2022-11-23T09:40:36.510Z,87.90
2022-11-23T09:43:33.274Z,85.00
2022-11-23T09:46:11.364Z,93.30
2022-11-23T09:49:16.456Z,100.20
2022-11-23T09:51:45.499Z,88.10
2022-11-23T09:54:29.405Z,79.90
2022-11-23T09:57:01.682Z,80.30
2022-11-23T09:59:29.991Z,88.80
2022-11-23T10:01:59.152Z,80.10
2022-11-23T10:04:33.364Z,88.30
2022-11-23T10:07:29.747Z,86.90
2022-11-23T10:10:21.585Z,91.30
2022-11-23T10:13:35.416Z,89.90
2022-11-23T10:16:06.411Z,91.70
2022-11-23T10:18:41.288Z,91.60
2022-11-23T10:21:35.076Z,91.60
2022-11-23T10:24:08.974Z,94.90
2022-11-23T10:26:41.591Z,91.90
2022-11-23T10:29:35.484Z,85.60
2022-11-23T10:32:11.717Z,87.10
2022-11-23T10:34:52.674Z,93.90
2022-11-23T10:37:20.652Z,91.90
2022-11-23T10:39:48.824Z,132.80
2022-11-23T10:42:49.506Z,128.50
2022-11-23T10:45:31.553Z,101.50
2022-11-23T10:48:00.549Z,103.30
2022-11-23T10:50:37.368Z,131.60
2022-11-23T10:53:05.384Z,176.30
2022-11-23T10:55:47.599Z,147.80
2022-11-23T10:58:30.558Z,120.50
2022-11-23T11:01:23.268Z,187.90
2022-11-23T11:03:53.169Z,137.90
2022-11-23T11:06:26.343Z,105.50
2022-11-23T11:08:56.921Z,107.40
2022-11-23T11:11:33.101Z,98.80
2022-11-23T11:16:58.189Z,102.10
2022-11-23T11:19:36.317Z,103.00
2022-11-23T11:22:26.071Z,109.40
2022-11-23T11:24:55.134Z,110.90
2022-11-23T11:27:26.383Z,104.90
2022-11-23T11:29:58.081Z,95.40
2022-11-23T11:32:35.674Z,104.10
2022-11-23T11:35:20.822Z,118.30
2022-11-23T11:37:52.599Z,103.70
2022-11-23T11:40:26.501Z,107.60
2022-11-23T11:43:31.249Z,106.40
2022-11-23T11:46:31.659Z,99.30
2022-11-23T11:49:07.834Z,108.60
2022-11-23T11:51:41.283Z,110.30
2022-11-23T11:54:18.561Z,114.10
2022-11-23T11:56:50.818Z,118.70
2022-11-23T11:59:42.727Z,119.20
2022-11-23T12:02:33.990Z,132.90
2022-11-23T12:05:11.376Z,133.50
2022-11-23T12:08:01.393Z,123.90
2022-11-23T12:11:02.389Z,148.70
2022-11-23T12:13:38.622Z,120.80
2022-11-23T12:16:15.335Z,176.30
2022-11-23T12:19:01.463Z,129.80
2022-11-23T12:22:07.314Z,112.70
2022-11-23T12:25:16.301Z,108.80
2022-11-23T12:28:23.601Z,102.10
2022-11-23T12:31:17.036Z,356.90
2022-11-23T12:34:26.208Z,324.10
2022-11-23T12:37:09.215Z,165.90
2022-11-23T12:39:55.409Z,261.40
2022-11-23T12:42:48.406Z,237.10
2022-11-23T12:45:31.429Z,134.80
2022-11-23T12:48:41.187Z,171.50
2022-11-23T12:51:17.998Z,125.50
2022-11-23T12:54:18.854Z,168.80
2022-11-23T12:57:28.629Z,264.00
2022-11-23T13:00:11.979Z,275.10
2022-11-23T13:03:06.189Z,216.30
2022-11-23T13:05:56.009Z,169.90
2022-11-23T13:08:39.172Z,186.20
2022-11-23T13:11:27.819Z,155.50
2022-11-23T13:14:09.525Z,109.90
2022-11-23T13:16:57.849Z,101.80
2022-11-23T13:19:40.900Z,94.80
2022-11-23T13:22:17.972Z,99.40
2022-11-23T13:25:25.989Z,95.30
2022-11-23T13:27:56.406Z,103.60
2022-11-23T13:30:35.606Z,106.90
2022-11-23T13:33:18.310Z,101.30
2022-11-23T13:35:57.479Z,97.90
2022-11-23T13:38:27.919Z,103.40
2022-11-23T13:40:56.463Z,95.60
2022-11-23T13:43:36.753Z,87.20
2022-11-23T13:46:07.740Z,94.40
2022-11-23T13:48:59.546Z,85.90
2022-11-23T13:51:33.708Z,90.60
2022-11-23T13:54:04.678Z,90.60
2022-11-23T13:56:39.503Z,106.40
2022-11-23T13:59:23.033Z,100.40
2022-11-23T14:02:00.284Z,93.10
2022-11-23T14:04:38.807Z,103.90
2022-11-23T14:07:25.762Z,98.90
2022-11-23T14:10:15.537Z,102.60
2022-11-23T14:12:49.067Z,100.40
2022-11-23T14:15:21.984Z,106.20
2022-11-23T14:18:11.530Z,129.90
2022-11-23T14:20:54.823Z,117.80
2022-11-23T14:23:54.509Z,106.40
2022-11-23T14:26:55.352Z,119.10
2022-11-23T14:29:29.225Z,120.60
2022-11-23T14:32:22.459Z,114.60
2022-11-23T14:35:18.923Z,102.30
2022-11-23T14:38:02.190Z,113.20
2022-11-23T14:40:36.506Z,106.20
2022-11-23T14:43:04.982Z,93.80
2022-11-23T14:45:34.865Z,98.00
2022-11-23T14:48:29.452Z,102.80
2022-11-23T14:51:11.294Z,103.00
2022-11-23T14:53:47.416Z,98.40
2022-11-23T14:56:39.209Z,95.80
2022-11-23T14:59:25.568Z,141.00
2022-11-23T15:01:56.092Z,346.90
2022-11-23T15:04:36.264Z,308.90
2022-11-23T15:07:19.969Z,200.60
2022-11-23T15:09:47.868Z,144.50
2022-11-23T15:12:28.247Z,133.20
2022-11-23T15:14:57.770Z,125.20
2022-11-23T15:17:26.074Z,114.60
2022-11-23T15:19:59.746Z,119.00
2022-11-23T15:22:29.131Z,107.20
2022-11-23T15:25:09.637Z,107.30
2022-11-23T15:27:41.349Z,198.00
2022-11-23T15:30:19.973Z,354.70
2022-11-23T15:32:59.419Z,623.80
2022-11-23T15:35:35.736Z,552.60
2022-11-23T15:38:09.675Z,446.60
2022-11-23T15:40:41.754Z,182.90
2022-11-23T15:43:14.252Z,403.70
2022-11-23T15:46:01.748Z,206.80
2022-11-23T15:48:33.632Z,139.00
2022-11-23T15:51:04.811Z,116.90
2022-11-23T15:53:49.132Z,303.50
2022-11-23T15:56:25.368Z,200.40
2022-11-23T15:58:54.669Z,260.80
2022-11-23T16:01:23.324Z,159.20
2022-11-23T16:04:05.043Z,203.00
2022-11-23T16:06:36.413Z,370.70
2022-11-23T16:12:28.525Z,316.30
2022-11-23T16:14:59.739Z,309.60
2022-11-23T16:17:29.640Z,482.00
2022-11-23T16:20:00.041Z,427.50
2022-11-23T16:22:36.062Z,581.00
2022-11-23T16:25:09.190Z,203.50
2022-11-23T16:27:37.713Z,255.20
2022-11-23T16:30:06.569Z,165.50
2022-11-23T16:32:34.645Z,226.30
2022-11-23T16:35:16.845Z,130.60
2022-11-23T16:37:47.038Z,127.10
2022-11-23T16:40:15.755Z,132.20
2022-11-23T16:42:44.439Z,122.20
2022-11-23T16:45:12.513Z,118.50
2022-11-23T16:48:00.758Z,115.50
2022-11-23T16:50:31.233Z,123.00
2022-11-23T16:53:02.472Z,113.60
2022-11-23T16:55:30.543Z,112.30
2022-11-23T16:57:58.638Z,104.50
2022-11-23T17:00:27.159Z,117.90
2022-11-23T17:02:55.268Z,109.00
2022-11-23T17:05:26.584Z,103.20
2022-11-23T17:07:54.842Z,119.70
2022-11-23T17:10:23.234Z,301.20
2022-11-23T17:12:54.090Z,321.20
2022-11-23T17:15:23.851Z,113.30
2022-11-23T17:17:52.478Z,91.00
2022-11-23T17:20:20.704Z,91.40
2022-11-23T17:22:52.102Z,84.20
2022-11-23T17:25:19.957Z,89.30
2022-11-23T17:27:48.456Z,88.00
2022-11-23T17:30:20.962Z,87.60
2022-11-23T17:32:49.683Z,91.50
2022-11-23T17:35:17.981Z,92.90
2022-11-23T17:37:47.120Z,92.50
2022-11-23T17:40:16.078Z,92.00
2022-11-23T17:42:44.559Z,87.30
2022-11-23T17:45:13.348Z,92.50
2022-11-23T17:47:43.860Z,89.10
2022-11-23T17:50:19.512Z,85.50
2022-11-23T17:52:48.218Z,87.70
2022-11-23T17:55:16.792Z,93.10
2022-11-23T17:57:44.656Z,96.90
2022-11-23T18:00:23.409Z,87.80
2022-11-23T18:02:52.918Z,91.80
2022-11-23T18:05:22.159Z,85.00
2022-11-23T18:07:51.209Z,82.50
2022-11-23T18:10:19.409Z,86.90
2022-11-23T18:12:47.848Z,87.60
2022-11-23T18:15:15.917Z,96.10
2022-11-23T18:17:44.089Z,81.00
2022-11-23T18:20:13.299Z,87.50
2022-11-23T18:22:41.263Z,90.80
2022-11-23T18:25:09.434Z,87.90
2022-11-23T18:27:37.505Z,83.70
2022-11-23T18:30:06.275Z,85.50
2022-11-23T18:32:34.373Z,89.10
2022-11-23T18:35:02.611Z,77.50
2022-11-23T18:37:30.818Z,83.30
2022-11-23T18:39:58.693Z,85.40
2022-11-23T18:42:26.764Z,79.60
2022-11-23T18:44:54.627Z,82.40
2022-11-23T18:47:22.800Z,78.00
2022-11-23T18:49:51.077Z,93.30
2022-11-23T18:52:18.945Z,102.10
2022-11-23T18:54:46.799Z,94.30
2022-11-23T18:57:16.850Z,92.60
2022-11-23T19:00:00.861Z,94.20
2022-11-23T19:02:29.646Z,90.90
2022-11-23T19:04:58.088Z,85.30
2022-11-23T19:07:27.442Z,99.70
2022-11-23T19:09:55.938Z,84.60
2022-11-23T19:12:23.897Z,85.40
2022-11-23T19:14:51.973Z,98.40
2022-11-23T19:17:20.457Z,173.40
2022-11-23T19:19:48.424Z,107.10
2022-11-23T19:22:16.292Z,102.50
2022-11-23T19:24:44.581Z,98.60
2022-11-23T19:27:12.545Z,88.70
2022-11-23T19:29:40.394Z,89.70
2022-11-23T19:32:08.792Z,88.80
2022-11-23T19:34:36.662Z,96.10
2022-11-23T19:37:04.667Z,88.50
2022-11-23T19:39:32.816Z,80.20
2022-11-23T19:42:01.967Z,87.30
2022-11-23T19:44:29.973Z,92.00
2022-11-23T19:46:58.001Z,81.90
2022-11-23T19:49:26.527Z,81.00
2022-11-23T19:51:56.344Z,82.00
2022-11-23T19:54:24.367Z,79.00
2022-11-23T19:56:52.321Z,80.00
2022-11-23T19:59:20.244Z,81.80
2022-11-23T20:01:48.271Z,77.30
2022-11-23T20:04:16.634Z,80.90
2022-11-23T20:06:44.564Z,89.20
2022-11-23T20:09:23.801Z,77.60
2022-11-23T20:11:52.065Z,67.60
2022-11-23T20:14:20.660Z,88.70
2022-11-23T20:16:49.145Z,79.90
2022-11-23T20:19:17.529Z,93.50
2022-11-23T20:21:45.654Z,93.80
2022-11-23T20:24:14.133Z,89.20
2022-11-23T20:26:42.936Z,107.20
2022-11-23T20:29:13.759Z,87.70
2022-11-23T20:31:42.073Z,84.40
2022-11-23T20:34:15.388Z,110.30
2022-11-23T20:36:45.287Z,77.30
2022-11-23T20:39:14.282Z,89.10
2022-11-23T20:41:43.186Z,72.10
2022-11-23T20:44:13.914Z,106.60
2022-11-23T20:49:31.555Z,68.20
2022-11-23T20:51:59.937Z,89.30
2022-11-23T20:54:28.527Z,103.40
2022-11-23T20:57:00.228Z,70.60
2022-11-23T20:59:29.482Z,82.20
2022-11-23T21:01:57.765Z,80.10
2022-11-23T21:04:26.071Z,82.60
2022-11-23T21:06:55.543Z,80.20
2022-11-23T21:09:23.609Z,78.80
2022-11-23T21:12:10.210Z,75.20
2022-11-23T21:14:38.592Z,76.80
2022-11-23T21:17:06.501Z,76.90
2022-11-23T21:19:37.830Z,80.80
2022-11-23T21:22:11.527Z,77.30
2022-11-23T21:24:40.616Z,81.70
2022-11-23T21:27:12.380Z,81.00
2022-11-23T21:29:40.932Z,91.60
2022-11-23T21:32:08.741Z,87.80
2022-11-23T21:34:37.310Z,90.50
2022-11-23T21:37:05.514Z,91.40
2022-11-23T21:39:33.564Z,97.00
2022-11-23T21:42:01.641Z,100.20
2022-11-23T21:44:29.807Z,104.50
2022-11-23T21:46:58.153Z,99.80
2022-11-23T21:49:27.939Z,100.70
2022-11-23T21:51:55.941Z,98.30
2022-11-23T21:54:23.829Z,97.70
2022-11-23T21:56:51.805Z,97.80
2022-11-23T21:59:19.880Z,90.60
2022-11-23T22:01:48.505Z,95.80
2022-11-23T22:04:17.355Z,93.10
2022-11-23T22:06:45.714Z,89.90
2022-11-23T22:09:14.523Z,80.00
2022-11-23T22:11:44.329Z,81.00
2022-11-23T22:14:17.329Z,75.10
2022-11-23T22:16:47.848Z,72.90
2022-11-23T22:19:17.062Z,80.90
2022-11-23T22:21:46.959Z,88.70
2022-11-23T22:24:17.885Z,86.90
2022-11-23T22:26:47.894Z,93.70
2022-11-23T22:29:16.764Z,88.70
2022-11-23T22:31:45.214Z,83.70
2022-11-23T22:34:14.511Z,89.90
2022-11-23T22:36:43.105Z,91.70
2022-11-23T22:39:11.681Z,84.60
2022-11-23T22:41:40.353Z,103.20
2022-11-23T22:44:10.135Z,90.20
2022-11-23T22:46:39.478Z,93.80
2022-11-23T22:49:07.863Z,87.50
2022-11-23T22:51:36.572Z,87.00
2022-11-23T22:54:05.027Z,101.30
2022-11-23T22:56:33.188Z,107.90
2022-11-23T22:59:01.477Z,100.90
2022-11-23T23:01:31.128Z,93.30
2022-11-23T23:04:02.160Z,104.90
2022-11-23T23:06:36.154Z,87.10
2022-11-23T23:09:07.192Z,92.00
2022-11-23T23:11:36.272Z,95.00
2022-11-23T23:14:05.567Z,99.20
2022-11-23T23:16:34.640Z,90.30
2022-11-23T23:19:03.767Z,90.90
2022-11-23T23:21:32.256Z,95.80
2022-11-23T23:24:03.795Z,93.30
2022-11-23T23:26:32.189Z,101.80
2022-11-23T23:29:01.225Z,93.20
2022-11-23T23:31:30.616Z,91.20
2022-11-23T23:33:59.981Z,94.00
2022-11-23T23:36:28.558Z,111.40
2022-11-23T23:38:58.168Z,99.90
2022-11-23T23:41:26.241Z,102.20
2022-11-23T23:43:54.442Z,101.80
2022-11-23T23:46:23.177Z,96.80
2022-11-23T23:48:51.696Z,97.60
2022-11-23T23:51:24.411Z,88.90
2022-11-23T23:53:53.063Z,95.30
2022-11-23T23:56:24.403Z,97.80
2022-11-23T23:58:52.753Z,84.40
